Time;durP1;ratioP1;P1;durP2;ratioP2;P2;SDS_P1;SDS_P2;PMS_P1;PMS_P2;Temp;Humidity;BMP_temperature;BMP_pressure;BME280_temperature;BME280_humidity;BME280_pressure;Samples;Min_cycle;Max_cycle;Signal;HPM_P1;HPM_P2
2021/06/05 00:00:10;;;;;;;123.72;61.90;;;;;;;;;;5054010;28;20056;-63
2021/06/05 00:02:56;;;;;;;116.95;59.90;;;;;;;;;;5053965;28;20045;-63
2021/06/05 00:05:43;;;;;;;115.88;56.80;;;;;;;;;;5054114;28;20047;-63
2021/06/05 00:08:29;;;;;;;127.38;59.60;;;;;;;;;;5053908;28;20511;-63
2021/06/05 00:11:15;;;;;;;117.00;59.85;;;;;;;;;;5053799;28;20045;-63
2021/06/05 00:14:00;;;;;;;115.40;55.55;;;;;;;;;;5053645;28;20127;-63
2021/06/05 00:16:47;;;;;;;118.97;57.28;;;;;;;;;;5053778;28;20492;-63
2021/06/05 00:19:33;;;;;;;118.32;54.92;;;;;;;;;;5053690;28;20434;-62
2021/06/05 00:22:18;;;;;;;111.97;56.00;;;;;;;;;;5053661;28;20537;-62
2021/06/05 00:25:04;;;;;;;120.82;56.67;;;;;;;;;;5053744;28;20055;-62
2021/06/05 00:27:50;;;;;;;107.40;53.95;;;;;;;;;;5053724;28;20509;-62
2021/06/05 00:30:35;;;;;;;125.43;58.55;;;;;;;;;;5053627;28;20099;-62
2021/06/05 00:33:21;;;;;;;114.50;53.42;;;;;;;;;;5053584;28;20045;-62
2021/06/05 00:36:07;;;;;;;108.80;52.70;;;;;;;;;;5053852;28;20053;-62
2021/06/05 00:38:54;;;;;;;124.38;54.78;;;;;;;;;;5053609;28;20045;-62
2021/06/05 00:41:39;;;;;;;127.63;56.55;;;;;;;;;;5038587;28;20045;-62
2021/06/05 00:44:25;;;;;;;107.40;52.22;;;;;;;;;;5053299;28;20045;-62
2021/06/05 00:47:11;;;;;;;89.32;44.80;;;;;;;;;;5038230;28;20391;-63
2021/06/05 00:49:57;;;;;;;93.28;47.55;;;;;;;;;;5052966;28;20077;-63
2021/06/05 00:52:43;;;;;;;95.13;49.03;;;;;;;;;;5053093;28;20142;-63
2021/06/05 00:55:30;;;;;;;104.88;50.90;;;;;;;;;;5053176;28;20065;-63
2021/06/05 00:58:16;;;;;;;111.00;50.97;;;;;;;;;;5038005;28;20091;-63
2021/06/05 01:01:19;;;;;;;111.88;51.45;;;;;;;;;;5052918;28;20055;-63
2021/06/05 01:04:10;;;;;;;90.75;44.83;;;;;;;;;;5038532;28;20049;-62
2021/06/05 01:06:59;;;;;;;116.88;52.40;;;;;;;;;;5038155;28;20544;-63
2021/06/05 01:09:59;;;;;;;122.32;50.28;;;;;;;;;;5038207;28;20052;-63
2021/06/05 01:13:12;;;;;;;123.18;50.88;;;;;;;;;;5024916;28;20098;-63
2021/06/05 01:16:00;;;;;;;110.72;51.03;;;;;;;;;;5037665;28;20406;-63
2021/06/05 01:18:48;;;;;;;106.72;48.10;;;;;;;;;;5037730;28;20048;-63
2021/06/05 01:21:48;;;;;;;116.20;50.83;;;;;;;;;;5023379;28;20067;-63
2021/06/05 01:24:52;;;;;;;121.47;51.92;;;;;;;;;;5037835;28;20060;-63
2021/06/05 01:27:44;;;;;;;103.55;49.35;;;;;;;;;;5052507;28;20051;-62
2021/06/05 01:30:33;;;;;;;81.90;43.37;;;;;;;;;;5023971;28;20490;-62
2021/06/05 01:33:22;;;;;;;95.30;44.50;;;;;;;;;;5051926;28;20048;-62
2021/06/05 01:36:11;;;;;;;89.70;44.10;;;;;;;;;;5037843;28;20110;-62
2021/06/05 01:38:57;;;;;;;104.22;50.13;;;;;;;;;;5038212;28;20056;-63
2021/06/05 01:41:44;;;;;;;102.47;47.78;;;;;;;;;;5038291;28;20056;-62
2021/06/05 01:44:31;;;;;;;113.50;50.58;;;;;;;;;;5037332;28;20060;-62
2021/06/05 01:47:17;;;;;;;126.60;51.13;;;;;;;;;;5037567;28;20522;-63
2021/06/05 01:50:05;;;;;;;113.22;50.22;;;;;;;;;;5036961;28;20454;-63
2021/06/05 01:52:50;;;;;;;120.30;51.33;;;;;;;;;;5036914;28;20120;-63
2021/06/05 01:55:40;;;;;;;103.18;50.00;;;;;;;;;;5036681;28;20065;-63
2021/06/05 01:58:28;;;;;;;102.25;48.15;;;;;;;;;;5037088;28;20053;-63
2021/06/05 02:01:24;;;;;;;118.68;53.63;;;;;;;;;;5037464;28;20055;-62
2021/06/05 02:04:10;;;;;;;129.57;53.38;;;;;;;;;;5036919;28;20056;-62
2021/06/05 02:07:17;;;;;;;91.65;49.20;;;;;;;;;;5052260;28;20045;-62
2021/06/05 02:10:07;;;;;;;95.75;45.53;;;;;;;;;;5037966;28;20052;-62
2021/06/05 02:12:53;;;;;;;107.45;47.88;;;;;;;;;;5052454;28;20048;-63
2021/06/05 02:16:06;;;;;;;87.70;45.05;;;;;;;;;;5030100;28;20057;-64
2021/06/05 02:18:58;;;;;;;83.93;43.35;;;;;;;;;;5044253;28;20046;-64
2021/06/05 02:21:56;;;;;;;75.32;40.80;;;;;;;;;;5043272;28;20505;-64
2021/06/05 02:24:45;;;;;;;71.63;41.22;;;;;;;;;;5030208;28;20060;-64
2021/06/05 02:27:31;;;;;;;107.85;46.13;;;;;;;;;;5016834;28;20058;-64
2021/06/05 02:30:19;;;;;;;98.95;46.72;;;;;;;;;;5016497;28;20504;-64
2021/06/05 02:33:06;;;;;;;94.25;48.00;;;;;;;;;;5017045;28;20132;-64
2021/06/05 02:35:58;;;;;;;103.35;51.10;;;;;;;;;;5016843;28;20429;-64
2021/06/05 02:38:53;;;;;;;98.78;48.20;;;;;;;;;;5030826;28;20064;-64
2021/06/05 02:41:42;;;;;;;90.28;46.22;;;;;;;;;;5016591;28;20056;-64
2021/06/05 02:44:29;;;;;;;94.22;47.67;;;;;;;;;;5031568;28;20517;-64
2021/06/05 02:47:15;;;;;;;97.60;48.95;;;;;;;;;;5030877;28;20053;-64
2021/06/05 02:50:01;;;;;;;98.05;48.63;;;;;;;;;;5031416;28;20138;-64
2021/06/05 02:52:50;;;;;;;82.47;46.08;;;;;;;;;;5016639;28;20140;-64
2021/06/05 02:55:38;;;;;;;83.85;45.60;;;;;;;;;;5016809;28;20049;-64
2021/06/05 02:58:24;;;;;;;75.72;45.15;;;;;;;;;;5031612;28;20115;-64
2021/06/05 03:01:10;;;;;;;88.35;44.40;;;;;;;;;;5015297;28;20052;-64
2021/06/05 03:03:59;;;;;;;104.22;48.53;;;;;;;;;;5030917;28;20068;-64
2021/06/05 03:06:46;;;;;;;115.93;50.72;;;;;;;;;;5017507;28;20059;-64
2021/06/05 03:09:31;;;;;;;95.20;46.58;;;;;;;;;;5019893;28;20585;-64
2021/06/05 03:12:18;;;;;;;95.03;45.90;;;;;;;;;;5020046;28;20045;-64
2021/06/05 03:15:05;;;;;;;94.10;44.55;;;;;;;;;;5019817;28;20075;-64
2021/06/05 03:17:51;;;;;;;92.93;44.45;;;;;;;;;;5019998;28;20131;-64
2021/06/05 03:20:38;;;;;;;96.28;46.88;;;;;;;;;;5034681;28;20132;-64
2021/06/05 03:23:24;;;;;;;97.30;46.90;;;;;;;;;;5034930;28;20045;-64
2021/06/05 03:26:11;;;;;;;81.95;38.22;;;;;;;;;;5034759;28;20053;-64
2021/06/05 03:28:57;;;;;;;73.60;38.63;;;;;;;;;;5019792;28;20499;-64
2021/06/05 03:31:44;;;;;;;85.43;40.75;;;;;;;;;;5034661;28;20049;-64
2021/06/05 03:34:31;;;;;;;82.55;42.20;;;;;;;;;;5019600;28;20507;-64
2021/06/05 03:37:17;;;;;;;95.53;42.38;;;;;;;;;;5019656;28;20407;-64
2021/06/05 03:40:11;;;;;;;75.60;40.25;;;;;;;;;;5034304;28;20041;-64
2021/06/05 03:42:57;;;;;;;90.00;43.15;;;;;;;;;;5034554;28;20046;-64
2021/06/05 03:45:43;;;;;;;76.72;41.03;;;;;;;;;;5019719;28;20104;-64
2021/06/05 03:48:29;;;;;;;90.80;43.00;;;;;;;;;;5034528;28;20077;-64
2021/06/05 03:51:15;;;;;;;94.60;41.45;;;;;;;;;;5034123;28;20203;-64
2021/06/05 03:54:01;;;;;;;90.60;41.55;;;;;;;;;;5034365;28;20049;-64
2021/06/05 03:56:49;;;;;;;104.32;41.42;;;;;;;;;;5034263;28;20041;-64
2021/06/05 03:59:34;;;;;;;95.53;42.45;;;;;;;;;;5033941;28;20050;-64
2021/06/05 04:02:20;;;;;;;104.78;42.92;;;;;;;;;;5034360;28;20127;-64
2021/06/05 04:05:06;;;;;;;70.10;37.88;;;;;;;;;;5034081;28;20057;-63
2021/06/05 04:07:52;;;;;;;97.75;43.33;;;;;;;;;;5034575;28;20103;-64
2021/06/05 04:10:37;;;;;;;80.97;38.90;;;;;;;;;;5033741;28;20526;-64
2021/06/05 04:13:22;;;;;;;84.03;38.95;;;;;;;;;;5033813;28;20049;-64
2021/06/05 04:16:08;;;;;;;96.32;42.08;;;;;;;;;;5034007;28;20052;-64
2021/06/05 04:18:55;;;;;;;95.30;43.05;;;;;;;;;;5033911;28;20049;-64
2021/06/05 04:21:41;;;;;;;84.88;40.08;;;;;;;;;;5033659;28;20050;-63
2021/06/05 04:24:26;;;;;;;95.40;39.33;;;;;;;;;;5034014;28;20060;-64
2021/06/05 04:27:12;;;;;;;102.80;41.35;;;;;;;;;;5033912;28;20057;-64
2021/06/05 04:29:57;;;;;;;79.28;34.78;;;;;;;;;;5033515;28;20149;-63
2021/06/05 04:32:42;;;;;;;74.88;32.85;;;;;;;;;;5033700;28;20156;-63
2021/06/05 04:35:48;;;;;;;63.95;29.63;;;;;;;;;;5019050;28;20053;-63
2021/06/05 04:38:33;;;;;;;250.15;48.47;;;;;;;;;;5033584;28;20060;-63
2021/06/05 04:41:19;;;;;;;96.00;34.22;;;;;;;;;;5033367;28;20053;-64
2021/06/05 04:44:04;;;;;;;101.18;34.55;;;;;;;;;;5033651;28;20069;-64
2021/06/05 04:46:50;;;;;;;96.82;31.35;;;;;;;;;;5033524;28;20045;-64
2021/06/05 04:49:36;;;;;;;38.97;20.33;;;;;;;;;;5033121;28;20042;-64
2021/06/05 04:52:21;;;;;;;71.05;29.48;;;;;;;;;;5033290;28;20042;-64
2021/06/05 04:55:07;;;;;;;49.15;25.60;;;;;;;;;;5033012;28;20407;-64
2021/06/05 04:57:53;;;;;;;55.42;28.08;;;;;;;;;;5018373;28;20115;-63
2021/06/05 05:00:39;;;;;;;53.90;24.92;;;;;;;;;;5033066;28;20053;-64
2021/06/05 05:03:25;;;;;;;44.83;22.92;;;;;;;;;;5033055;28;20085;-63
2021/06/05 05:06:10;;;;;;;45.35;23.60;;;;;;;;;;5032985;28;20045;-63
2021/06/05 05:08:56;;;;;;;42.78;20.25;;;;;;;;;;5032861;28;20053;-63
2021/06/05 05:11:41;;;;;;;32.78;18.17;;;;;;;;;;5032794;28;20053;-63
2021/06/05 05:14:26;;;;;;;36.35;19.38;;;;;;;;;;5032616;28;20049;-63
2021/06/05 05:17:12;;;;;;;34.70;18.45;;;;;;;;;;5032987;28;20095;-63
2021/06/05 05:19:57;;;;;;;40.38;20.50;;;;;;;;;;5032479;28;20060;-63
2021/06/05 05:22:43;;;;;;;31.98;15.68;;;;;;;;;;5032643;28;20103;-64
2021/06/05 05:25:28;;;;;;;24.92;13.35;;;;;;;;;;5032402;28;20056;-63
2021/06/05 05:28:14;;;;;;;32.70;15.23;;;;;;;;;;5032743;28;20079;-63
2021/06/05 05:31:00;;;;;;;27.80;14.18;;;;;;;;;;5031756;28;20136;-63
2021/06/05 05:33:45;;;;;;;25.20;13.88;;;;;;;;;;5032349;28;20403;-63
2021/06/05 05:36:32;;;;;;;29.55;15.40;;;;;;;;;;5032466;28;20045;-65
2021/06/05 05:39:18;;;;;;;19.48;12.32;;;;;;;;;;5032369;28;20061;-63
2021/06/05 05:42:03;;;;;;;20.65;12.73;;;;;;;;;;5032232;28;20410;-63
2021/06/05 05:44:48;;;;;;;18.52;11.48;;;;;;;;;;5032379;28;20049;-63
2021/06/05 05:47:34;;;;;;;17.77;9.70;;;;;;;;;;5032271;28;20106;-64
2021/06/05 05:50:20;;;;;;;19.45;10.68;;;;;;;;;;5031916;28;20449;-64
2021/06/05 05:53:05;;;;;;;15.20;9.48;;;;;;;;;;5032225;28;20118;-64
2021/06/05 05:55:51;;;;;;;12.13;8.10;;;;;;;;;;5032198;28;20050;-64
2021/06/05 05:58:37;;;;;;;14.20;9.13;;;;;;;;;;5032104;28;20060;-64
2021/06/05 06:01:23;;;;;;;13.77;8.50;;;;;;;;;;5031922;28;20053;-62
2021/06/05 06:04:08;;;;;;;13.32;9.25;;;;;;;;;;5032042;28;20132;-62
2021/06/05 06:06:53;;;;;;;15.75;8.88;;;;;;;;;;5032046;28;20057;-64
2021/06/05 06:09:39;;;;;;;12.88;9.85;;;;;;;;;;5031962;28;20058;-64
2021/06/05 06:12:24;;;;;;;11.57;8.65;;;;;;;;;;5031850;28;20045;-63
2021/06/05 06:15:13;;;;;;;13.52;8.55;;;;;;;;;;5031717;28;20042;-63
2021/06/05 06:17:58;;;;;;;8.13;6.55;;;;;;;;;;5032155;28;20168;-62
2021/06/05 06:20:45;;;;;;;8.50;6.93;;;;;;;;;;5031733;28;20491;-63
2021/06/05 06:23:31;;;;;;;10.52;8.20;;;;;;;;;;5031770;28;20136;-62
2021/06/05 06:26:18;;;;;;;8.32;7.13;;;;;;;;;;5031815;28;20495;-62
2021/06/05 06:29:12;;;;;;;7.90;6.85;;;;;;;;;;5031862;28;20545;-64
2021/06/05 06:31:57;;;;;;;9.23;7.13;;;;;;;;;;5031828;28;20061;-62
2021/06/05 06:34:43;;;;;;;7.30;6.60;;;;;;;;;;5031780;28;20049;-62
2021/06/05 06:37:28;;;;;;;7.57;6.45;;;;;;;;;;5031733;28;20050;-63
2021/06/05 06:40:13;;;;;;;6.70;6.00;;;;;;;;;;5031491;28;20049;-63
2021/06/05 06:42:59;;;;;;;8.18;7.28;;;;;;;;;;5035657;28;20053;-62
2021/06/05 06:45:44;;;;;;;9.90;7.65;;;;;;;;;;5035594;28;20051;-64
2021/06/05 06:48:30;;;;;;;10.80;7.63;;;;;;;;;;5035578;28;20518;-63
2021/06/05 06:51:15;;;;;;;9.00;8.10;;;;;;;;;;5020435;28;20495;-63
2021/06/05 06:54:00;;;;;;;17.35;9.18;;;;;;;;;;5035322;28;20514;-64
2021/06/05 06:56:46;;;;;;;8.13;6.70;;;;;;;;;;5035381;28;20503;-64
2021/06/05 06:59:32;;;;;;;7.15;6.18;;;;;;;;;;5035362;28;20068;-62
2021/06/05 07:02:18;;;;;;;8.90;7.20;;;;;;;;;;5035435;28;20055;-63
2021/06/05 07:05:03;;;;;;;7.65;6.13;;;;;;;;;;5035212;28;20052;-64
2021/06/05 07:07:49;;;;;;;7.70;6.93;;;;;;;;;;5035461;28;20068;-64
2021/06/05 07:10:34;;;;;;;9.00;7.18;;;;;;;;;;5034926;28;20058;-64
2021/06/05 07:13:19;;;;;;;6.03;5.40;;;;;;;;;;5035112;28;20042;-64
2021/06/05 07:16:05;;;;;;;7.00;6.22;;;;;;;;;;5020238;28;20112;-64
2021/06/05 07:18:50;;;;;;;10.15;7.95;;;;;;;;;;5020032;28;20400;-64
2021/06/05 07:21:36;;;;;;;8.43;7.55;;;;;;;;;;5034608;28;20561;-64
2021/06/05 07:24:21;;;;;;;9.50;8.60;;;;;;;;;;5035013;28;20049;-64
2021/06/05 07:27:07;;;;;;;8.85;7.93;;;;;;;;;;5034917;28;20111;-63
2021/06/05 07:29:53;;;;;;;9.73;7.40;;;;;;;;;;5034598;28;20402;-63
2021/06/05 07:32:38;;;;;;;7.93;7.13;;;;;;;;;;5034797;28;20191;-63
2021/06/05 07:35:24;;;;;;;11.52;9.52;;;;;;;;;;5033947;28;20048;-63
2021/06/05 07:38:09;;;;;;;9.63;8.73;;;;;;;;;;5032340;28;20153;-63
2021/06/05 07:40:54;;;;;;;13.68;9.95;;;;;;;;;;5034006;28;20048;-63
2021/06/05 07:43:40;;;;;;;11.88;10.40;;;;;;;;;;5033486;28;20055;-63
2021/06/05 07:46:25;;;;;;;11.85;10.50;;;;;;;;;;5034167;28;20128;-63
2021/06/05 07:49:10;;;;;;;11.35;10.25;;;;;;;;;;5017119;28;20056;-63
2021/06/05 07:51:56;;;;;;;11.02;9.93;;;;;;;;;;5032494;28;20049;-63
2021/06/05 07:54:42;;;;;;;11.32;10.23;;;;;;;;;;5034213;28;20052;-64
2021/06/05 07:57:27;;;;;;;10.65;8.95;;;;;;;;;;5018963;28;20048;-63
2021/06/05 08:00:17;;;;;;;10.60;9.60;;;;;;;;;;5033491;28;20107;-64
2021/06/05 08:03:02;;;;;;;12.82;10.93;;;;;;;;;;5032739;28;20044;-63
2021/06/05 08:05:47;;;;;;;12.25;10.35;;;;;;;;;;5033059;28;20046;-63
2021/06/05 08:08:33;;;;;;;13.68;12.30;;;;;;;;;;5033636;28;20052;-64
2021/06/05 08:11:18;;;;;;;12.40;11.20;;;;;;;;;;5031261;28;20406;-64
2021/06/05 08:14:04;;;;;;;13.35;12.00;;;;;;;;;;5073462;23;20032;-66
2021/06/05 08:16:49;;;;;;;13.40;12.00;;;;;;;;;;5052713;28;20055;-66
2021/06/05 08:19:37;;;;;;;17.88;15.70;;;;;;;;;;5052970;28;20110;-64
2021/06/05 08:22:24;;;;;;;14.50;13.10;;;;;;;;;;5053258;28;20054;-64
2021/06/05 08:25:09;;;;;;;16.25;14.43;;;;;;;;;;5053257;28;20510;-64
2021/06/05 08:27:55;;;;;;;15.75;14.25;;;;;;;;;;5053534;28;20045;-64
2021/06/05 08:30:44;;;;;;;18.52;16.67;;;;;;;;;;5053279;28;20047;-64
2021/06/05 08:33:30;;;;;;;17.38;15.73;;;;;;;;;;5053440;28;20119;-64
2021/06/05 08:36:16;;;;;;;19.75;17.85;;;;;;;;;;5053505;28;20409;-64
2021/06/05 08:39:01;;;;;;;22.95;20.80;;;;;;;;;;5053421;28;20127;-64
2021/06/05 08:41:50;;;;;;;23.63;21.20;;;;;;;;;;5053517;28;20130;-63
2021/06/05 08:44:40;;;;;;;20.23;18.42;;;;;;;;;;5038849;28;20099;-63
2021/06/05 08:47:27;;;;;;;21.98;19.88;;;;;;;;;;5053315;28;20064;-63
2021/06/05 08:50:16;;;;;;;21.10;19.00;;;;;;;;;;5052995;28;20041;-63
2021/06/05 08:53:04;;;;;;;20.45;18.48;;;;;;;;;;5053321;28;20045;-63
2021/06/05 08:55:56;;;;;;;20.05;18.23;;;;;;;;;;5038026;28;20139;-63
2021/06/05 08:58:45;;;;;;;20.83;18.92;;;;;;;;;;5038273;28;20052;-63
2021/06/05 09:01:38;;;;;;;20.27;18.50;;;;;;;;;;5052845;28;20060;-63
2021/06/05 09:04:24;;;;;;;20.08;18.17;;;;;;;;;;5036914;28;20453;-63
2021/06/05 09:07:11;;;;;;;19.83;18.10;;;;;;;;;;5053065;28;20055;-63
2021/06/05 09:09:56;;;;;;;21.20;19.33;;;;;;;;;;5052708;28;20402;-63
2021/06/05 09:12:41;;;;;;;21.30;19.20;;;;;;;;;;5038093;28;20055;-63
2021/06/05 09:15:27;;;;;;;18.88;17.08;;;;;;;;;;5052491;28;20113;-64
2021/06/05 09:18:13;;;;;;;19.88;17.98;;;;;;;;;;5052679;28;20048;-64
2021/06/05 09:21:05;;;;;;;21.63;19.55;;;;;;;;;;5052512;28;20465;-64
2021/06/05 09:23:50;;;;;;;20.52;18.63;;;;;;;;;;5052568;28;20044;-64
2021/06/05 09:26:36;;;;;;;21.50;19.50;;;;;;;;;;5052565;28;20043;-64
2021/06/05 09:29:22;;;;;;;21.35;19.45;;;;;;;;;;5052401;28;20048;-64
2021/06/05 09:32:11;;;;;;;21.75;19.27;;;;;;;;;;5052580;28;20056;-64
2021/06/05 09:34:58;;;;;;;21.85;19.88;;;;;;;;;;5052337;28;20077;-63
2021/06/05 09:37:44;;;;;;;23.58;21.58;;;;;;;;;;5052414;28;20422;-64
2021/06/05 09:40:33;;;;;;;23.17;21.02;;;;;;;;;;5052223;28;20056;-63
2021/06/05 09:43:19;;;;;;;24.00;21.90;;;;;;;;;;5052365;28;20051;-63
2021/06/05 09:46:24;;;;;;;25.15;22.75;;;;;;;;;;5037360;28;20052;-63
2021/06/05 09:49:17;;;;;;;24.65;22.45;;;;;;;;;;5037345;28;20045;-63
2021/06/05 09:52:12;;;;;;;23.83;21.73;;;;;;;;;;5052392;28;20056;-64
2021/06/05 09:55:00;;;;;;;23.45;21.45;;;;;;;;;;5051992;28;20044;-63
2021/06/05 09:57:46;;;;;;;24.50;22.40;;;;;;;;;;5037050;28;20055;-63
2021/06/05 10:00:37;;;;;;;25.30;23.10;;;;;;;;;;5051994;28;20146;-63
2021/06/05 10:03:22;;;;;;;27.63;25.08;;;;;;;;;;5052035;28;20052;-63
2021/06/05 10:06:36;;;;;;;29.23;26.52;;;;;;;;;;5051728;28;20478;-64
2021/06/05 10:09:25;;;;;;;29.65;26.90;;;;;;;;;;5036311;28;20398;-62
2021/06/05 10:12:10;;;;;;;28.45;25.75;;;;;;;;;;5051683;28;20040;-63
2021/06/05 10:14:57;;;;;;;28.17;25.60;;;;;;;;;;5051189;28;20041;-63
2021/06/05 10:17:52;;;;;;;28.05;25.45;;;;;;;;;;5036814;28;20495;-63
2021/06/05 10:20:48;;;;;;;29.40;26.70;;;;;;;;;;5036768;28;20049;-63
2021/06/05 10:23:34;;;;;;;29.40;26.70;;;;;;;;;;5051725;28;20103;-63
2021/06/05 10:26:22;;;;;;;31.42;28.63;;;;;;;;;;5036773;28;20045;-63
2021/06/05 10:29:31;;;;;;;30.13;27.33;;;;;;;;;;5051814;28;20071;-63
2021/06/05 10:32:18;;;;;;;30.45;27.60;;;;;;;;;;5051484;28;20122;-63
2021/06/05 10:35:03;;;;;;;30.85;27.98;;;;;;;;;;5051582;28;20044;-63
2021/06/05 10:37:48;;;;;;;30.17;27.45;;;;;;;;;;5051644;28;20049;-63
2021/06/05 10:40:33;;;;;;;32.90;30.00;;;;;;;;;;5036643;28;20159;-63
2021/06/05 10:43:18;;;;;;;30.10;27.40;;;;;;;;;;5051480;28;20648;-63
2021/06/05 10:46:13;;;;;;;29.50;26.90;;;;;;;;;;5051161;28;20055;-63
2021/06/05 10:49:24;;;;;;;32.00;29.08;;;;;;;;;;5034606;28;20132;-63
2021/06/05 10:52:10;;;;;;;29.38;26.80;;;;;;;;;;5035255;28;20049;-63
2021/06/05 10:54:59;;;;;;;29.63;27.02;;;;;;;;;;5048896;28;20159;-63
2021/06/05 10:57:48;;;;;;;28.77;26.27;;;;;;;;;;5049122;28;20525;-64
2021/06/05 11:00:42;;;;;;;29.90;27.25;;;;;;;;;;5048252;28;20521;-64
2021/06/05 11:03:28;;;;;;;28.13;25.52;;;;;;;;;;5051030;28;20047;-64
2021/06/05 11:06:21;;;;;;;26.90;24.60;;;;;;;;;;5048584;28;20051;-63
2021/06/05 11:09:29;;;;;;;29.70;27.08;;;;;;;;;;5035146;28;20517;-64
2021/06/05 11:12:14;;;;;;;28.10;25.73;;;;;;;;;;5045892;28;20063;-63
2021/06/05 11:15:00;;;;;;;30.67;27.92;;;;;;;;;;5048893;28;20051;-63
2021/06/05 11:17:45;;;;;;;30.40;27.77;;;;;;;;;;5050104;28;20052;-64
2021/06/05 11:20:32;;;;;;;30.85;28.15;;;;;;;;;;5035435;28;20182;-64
2021/06/05 11:23:18;;;;;;;29.52;27.02;;;;;;;;;;5048606;28;20040;-65
2021/06/05 11:26:23;;;;;;;31.80;29.10;;;;;;;;;;5048144;28;20048;-63
2021/06/05 11:29:20;;;;;;;26.58;24.17;;;;;;;;;;5051712;28;20051;-64
2021/06/05 11:32:18;;;;;;;23.30;20.98;;;;;;;;;;5051957;28;20110;-64
2021/06/05 11:35:07;;;;;;;23.15;21.05;;;;;;;;;;5051532;28;20483;-64
2021/06/05 11:37:52;;;;;;;23.13;21.02;;;;;;;;;;5052883;28;20142;-64
2021/06/05 11:41:04;;;;;;;25.40;22.92;;;;;;;;;;5049870;28;20099;-64
2021/06/05 11:43:50;;;;;;;26.23;23.52;;;;;;;;;;5051915;28;20041;-65
2021/06/05 11:46:35;;;;;;;29.23;26.23;;;;;;;;;;5052820;28;20063;-64
2021/06/05 11:49:42;;;;;;;27.83;24.88;;;;;;;;;;5053298;28;20521;-64
2021/06/05 11:52:31;;;;;;;28.33;25.40;;;;;;;;;;5051305;28;20529;-63
2021/06/05 11:55:21;;;;;;;27.58;24.75;;;;;;;;;;5050068;28;20048;-63
2021/06/05 11:58:12;;;;;;;27.67;25.05;;;;;;;;;;5051362;28;20033;-63
2021/06/05 12:01:05;;;;;;;27.33;24.42;;;;;;;;;;5052596;28;20063;-63
2021/06/05 12:03:56;;;;;;;28.38;25.42;;;;;;;;;;5053643;28;20048;-64
2021/06/05 12:06:43;;;;;;;27.15;24.35;;;;;;;;;;5053475;28;20056;-63
2021/06/05 12:09:29;;;;;;;30.90;25.73;;;;;;;;;;5051217;28;20056;-64
2021/06/05 12:12:14;;;;;;;27.25;24.50;;;;;;;;;;5053593;28;20048;-64
2021/06/05 12:15:26;;;;;;;27.58;24.77;;;;;;;;;;5037989;28;20411;-64
2021/06/05 12:18:37;;;;;;;25.77;22.98;;;;;;;;;;5043378;28;20071;-64
2021/06/05 12:21:33;;;;;;;23.10;20.67;;;;;;;;;;5053488;28;20432;-64
2021/06/05 12:24:23;;;;;;;22.20;20.00;;;;;;;;;;5053858;28;20055;-64
2021/06/05 12:27:08;;;;;;;18.73;16.95;;;;;;;;;;5053740;28;20119;-64
2021/06/05 12:30:04;;;;;;;18.00;16.20;;;;;;;;;;5052392;28;20383;-64
2021/06/05 12:32:54;;;;;;;14.93;13.52;;;;;;;;;;5053730;28;20064;-64
2021/06/05 12:35:46;;;;;;;14.90;13.50;;;;;;;;;;5053403;28;20067;-63
2021/06/05 12:38:39;;;;;;;16.00;12.90;;;;;;;;;;5052777;28;20207;-64
2021/06/05 12:41:33;;;;;;;16.08;14.20;;;;;;;;;;5053028;28;20056;-64
2021/06/05 12:44:20;;;;;;;16.48;14.88;;;;;;;;;;5053287;28;20051;-64
2021/06/05 12:47:06;;;;;;;15.88;14.52;;;;;;;;;;5052952;28;20055;-64
2021/06/05 12:49:51;;;;;;;18.17;16.58;;;;;;;;;;5038275;28;20103;-64
2021/06/05 12:52:36;;;;;;;18.88;17.10;;;;;;;;;;5038235;28;20048;-64
2021/06/05 12:55:40;;;;;;;18.85;17.15;;;;;;;;;;5037991;28;20041;-64
2021/06/05 12:58:43;;;;;;;20.05;18.15;;;;;;;;;;5052673;28;20498;-64
2021/06/05 13:01:28;;;;;;;;;;;;;;;;;;5052973;28;20051;-64
2021/06/05 13:04:33;;;;;;;22.05;19.85;;;;;;;;;;5053033;28;19921;-64
2021/06/05 13:07:30;;;;;;;22.52;20.33;;;;;;;;;;5052911;28;20052;-64
2021/06/05 13:10:18;;;;;;;25.85;23.17;;;;;;;;;;5052657;28;20060;-64
2021/06/05 13:13:13;;;;;;;28.77;25.52;;;;;;;;;;5052910;28;20053;-64
2021/06/05 13:16:00;;;;;;;32.55;26.65;;;;;;;;;;5052442;28;20183;-64
2021/06/05 13:18:46;;;;;;;32.88;28.05;;;;;;;;;;5052464;28;20075;-64
2021/06/05 13:21:31;;;;;;;37.30;30.25;;;;;;;;;;5023502;28;20423;-64
2021/06/05 13:24:17;;;;;;;37.72;31.65;;;;;;;;;;5052469;28;20044;-64
2021/06/05 13:27:14;;;;;;;33.38;29.77;;;;;;;;;;5052380;28;20618;-64
2021/06/05 13:30:14;;;;;;;37.15;30.83;;;;;;;;;;5052219;28;20060;-64
2021/06/05 13:32:59;;;;;;;38.97;30.90;;;;;;;;;;5052363;28;20494;-65
2021/06/05 13:35:46;;;;;;;36.53;31.13;;;;;;;;;;5052430;28;20049;-65
2021/06/05 13:38:31;;;;;;;43.05;32.28;;;;;;;;;;5037068;28;20067;-65
2021/06/05 13:41:16;;;;;;;40.90;32.58;;;;;;;;;;5051479;28;20056;-64
2021/06/05 13:44:01;;;;;;;37.65;32.10;;;;;;;;;;5052251;28;20048;-65
2021/06/05 13:46:47;;;;;;;40.22;33.40;;;;;;;;;;5052158;28;20068;-65
2021/06/05 13:49:32;;;;;;;43.63;32.83;;;;;;;;;;5051833;28;20095;-65
2021/06/05 13:52:27;;;;;;;41.63;34.55;;;;;;;;;;5052001;28;20098;-65
2021/06/05 13:55:28;;;;;;;39.72;34.33;;;;;;;;;;5050979;28;20051;-65
2021/06/05 13:58:14;;;;;;;42.80;33.70;;;;;;;;;;5050622;28;20048;-65
2021/06/05 14:01:00;;;;;;;42.75;33.97;;;;;;;;;;5051742;28;20290;-65
2021/06/05 14:03:45;;;;;;;40.20;33.10;;;;;;;;;;5051894;28;20564;-65
2021/06/05 14:06:31;;;;;;;41.47;34.70;;;;;;;;;;5052001;28;20086;-65
2021/06/05 14:09:17;;;;;;;39.78;32.95;;;;;;;;;;5052014;28;20052;-65
2021/06/05 14:12:02;;;;;;;46.78;36.83;;;;;;;;;;5051854;28;20044;-65
2021/06/05 14:14:47;;;;;;;42.78;35.35;;;;;;;;;;5051552;28;20609;-64
2021/06/05 14:17:33;;;;;;;42.70;34.80;;;;;;;;;;5051910;28;20107;-65
2021/06/05 14:20:20;;;;;;;47.72;36.55;;;;;;;;;;5051072;28;20060;-65
2021/06/05 14:23:05;;;;;;;45.05;37.00;;;;;;;;;;5051793;28;20567;-65
2021/06/05 14:25:50;;;;;;;44.92;37.10;;;;;;;;;;5051758;28;20110;-65
2021/06/05 14:28:36;;;;;;;39.65;32.85;;;;;;;;;;5091925;23;20052;-61
2021/06/05 14:31:22;;;;;;;36.67;32.65;;;;;;;;;;5054138;28;20052;-61
2021/06/05 14:34:07;;;;;;;39.72;32.80;;;;;;;;;;5055347;28;20065;-62
2021/06/05 14:36:53;;;;;;;39.92;34.97;;;;;;;;;;5054508;28;20124;-62
2021/06/05 14:39:38;;;;;;;37.80;33.75;;;;;;;;;;5040153;28;20087;-61
2021/06/05 14:42:23;;;;;;;39.95;35.60;;;;;;;;;;5055613;28;20076;-62
2021/06/05 14:45:10;;;;;;;39.83;34.78;;;;;;;;;;5054221;28;20056;-61
2021/06/05 14:47:55;;;;;;;41.58;37.10;;;;;;;;;;5052950;28;20041;-62
2021/06/05 14:50:41;;;;;;;42.08;36.88;;;;;;;;;;5052247;28;20037;-61
2021/06/05 14:53:28;;;;;;;45.13;38.70;;;;;;;;;;5037514;28;20052;-61
2021/06/05 14:56:14;;;;;;;59.55;46.75;;;;;;;;;;5051806;28;20111;-62
2021/06/05 14:58:59;;;;;;;61.05;47.55;;;;;;;;;;5051288;28;20048;-61
2021/06/05 15:01:45;;;;;;;62.55;48.15;;;;;;;;;;5037716;28;20040;-61
2021/06/05 15:04:30;;;;;;;67.03;50.20;;;;;;;;;;5057145;28;20044;-62
2021/06/05 15:07:15;;;;;;;69.30;53.55;;;;;;;;;;5057011;28;20068;-62
2021/06/05 15:10:01;;;;;;;66.78;52.63;;;;;;;;;;5056830;28;20111;-62
2021/06/05 15:12:46;;;;;;;75.40;54.33;;;;;;;;;;5055727;28;20057;-61
2021/06/05 15:15:35;;;;;;;66.57;51.38;;;;;;;;;;5040447;28;20048;-61
2021/06/05 15:18:20;;;;;;;75.68;56.15;;;;;;;;;;5055521;28;20072;-61
2021/06/05 15:21:05;;;;;;;77.72;57.10;;;;;;;;;;5055094;28;20052;-61
2021/06/05 15:23:51;;;;;;;79.78;57.00;;;;;;;;;;5055943;28;20507;-60
2021/06/05 15:26:36;;;;;;;73.07;56.72;;;;;;;;;;5054742;28;20045;-61
2021/06/05 15:29:22;;;;;;;75.22;57.83;;;;;;;;;;5054468;28;20053;-61
2021/06/05 15:32:07;;;;;;;77.80;59.78;;;;;;;;;;5054726;28;20175;-62
2021/06/05 15:34:52;;;;;;;78.65;60.45;;;;;;;;;;5054451;28;20052;-61
2021/06/05 15:37:38;;;;;;;78.03;60.53;;;;;;;;;;5039405;28;20044;-61
2021/06/05 15:40:23;;;;;;;75.18;58.33;;;;;;;;;;5053869;28;20513;-61
2021/06/05 15:43:09;;;;;;;77.57;58.50;;;;;;;;;;5054549;28;20118;-61
2021/06/05 15:45:56;;;;;;;78.45;58.63;;;;;;;;;;5054345;28;20175;-61
2021/06/05 15:48:42;;;;;;;77.28;58.08;;;;;;;;;;5054362;28;20059;-61
2021/06/05 15:51:29;;;;;;;72.88;55.30;;;;;;;;;;5053883;28;20048;-61
2021/06/05 15:54:21;;;;;;;83.07;59.63;;;;;;;;;;5053878;28;20064;-61
2021/06/05 15:57:06;;;;;;;79.68;58.47;;;;;;;;;;5053950;28;20052;-61
2021/06/05 15:59:52;;;;;;;76.82;57.15;;;;;;;;;;5053771;28;20052;-62
2021/06/05 16:02:38;;;;;;;75.13;57.60;;;;;;;;;;5055666;28;20045;-61
2021/06/05 16:05:24;;;;;;;78.00;57.20;;;;;;;;;;5055440;28;20049;-61
2021/06/05 16:08:09;;;;;;;72.30;57.80;;;;;;;;;;5055780;28;20529;-60
2021/06/05 16:10:54;;;;;;;75.88;57.80;;;;;;;;;;5055586;28;20056;-61
2021/06/05 16:13:40;;;;;;;69.15;54.13;;;;;;;;;;5054577;28;20079;-62
2021/06/05 16:16:25;;;;;;;65.10;52.45;;;;;;;;;;5040718;28;20454;-62
2021/06/05 16:19:11;;;;;;;74.05;54.90;;;;;;;;;;5055348;28;20047;-61